Time;durP1;ratioP1;P1;durP2;ratioP2;P2;SDS_P1;SDS_P2;PMS_P1;PMS_P2;Temp;Humidity;BMP_temperature;BMP_pressure;BME280_temperature;BME280_humidity;BME280_pressure;Samples;Min_cycle;Max_cycle;Signal;HPM_P1;HPM_P2
2022/08/01 00:00:26;;;;;;;4.28;1.90;;;23.00;91.60;;;;;;5004930;28;20081;-82
2022/08/01 00:02:52;;;;;;;4.00;1.98;;;23.00;91.70;;;;;;5005385;28;20021;-81
2022/08/01 00:05:17;;;;;;;3.47;1.75;;;22.90;91.80;;;;;;5019089;28;20033;-82
2022/08/01 00:07:43;;;;;;;4.03;1.90;;;22.90;91.90;;;;;;5005739;28;20033;-82
2022/08/01 00:10:14;;;;;;;4.18;1.88;;;22.90;92.10;;;;;;5020510;28;20034;-81
2022/08/01 00:12:42;;;;;;;2.90;1.67;;;22.90;92.10;;;;;;4984549;28;20053;-83
2022/08/01 00:15:10;;;;;;;3.35;2.08;;;22.80;92.30;;;;;;5004261;28;20096;-82
2022/08/01 00:17:36;;;;;;;3.58;2.10;;;;;;;;;;5003651;28;20060;-80
2022/08/01 00:20:04;;;;;;;2.70;1.70;;;22.60;92.70;;;;;;5002193;28;20430;-80
2022/08/01 00:22:34;;;;;;;4.47;2.10;;;22.50;92.90;;;;;;5001650;28;20049;-81
2022/08/01 00:25:00;;;;;;;;;;;22.60;93.10;;;;;;5002859;28;20030;-85
2022/08/01 00:27:26;;;;;;;3.47;1.73;;;22.40;93.50;;;;;;5016219;28;19928;-80
2022/08/01 00:29:51;;;;;;;3.58;2.08;;;22.40;93.70;;;;;;5019094;28;20040;-82
2022/08/01 00:32:17;;;;;;;3.03;2.00;;;;;;;;;;5000923;28;20088;-82
2022/08/01 00:34:43;;;;;;;3.10;1.95;;;;;;;;;;4993816;28;20108;-81
2022/08/01 00:37:09;;;;;;;4.78;2.60;;;22.30;94.10;;;;;;5017238;28;20057;-82
2022/08/01 00:39:35;;;;;;;2.92;1.98;;;22.20;94.70;;;;;;5002725;28;20250;-82
2022/08/01 00:42:07;;;;;;;3.95;2.05;;;22.20;95.20;;;;;;5000369;28;20090;-79
2022/08/01 00:44:33;;;;;;;3.85;2.00;;;22.20;95.10;;;;;;4999880;28;20399;-86
2022/08/01 00:46:59;;;;;;;5.65;2.90;;;22.10;95.40;;;;;;4999578;28;20040;-81
2022/08/01 00:49:24;;;;;;;6.70;3.58;;;22.10;95.40;;;;;;4998257;28;20026;-82
2022/08/01 00:51:50;;;;;;;4.43;2.15;;;;;;;;;;5016588;28;20029;-83
2022/08/01 00:54:16;;;;;;;6.50;1.88;;;22.10;95.50;;;;;;4998977;28;20072;-82
2022/08/01 00:56:43;;;;;;;5.72;2.08;;;22.00;95.90;;;;;;5002613;28;20052;-85
2022/08/01 00:59:10;;;;;;;5.70;2.38;;;22.00;96.20;;;;;;4996567;28;20049;-86
2022/08/01 01:01:36;;;;;;;11.40;3.60;;;;;;;;;;5018886;28;20555;-82
2022/08/01 01:04:02;;;;;;;2.92;1.88;;;;;;;;;;5017102;28;20053;-79
2022/08/01 01:06:58;;;;;;;12.60;3.38;;;21.80;96.80;;;;;;5001447;28;20038;-84
2022/08/01 01:09:42;;;;;;;8.43;2.72;;;;;;;;;;5011988;28;20022;-83
2022/08/01 01:12:22;;;;;;;4.75;1.70;;;21.80;97.20;;;;;;4998867;28;20102;-83
2022/08/01 01:15:08;;;;;;;6.00;2.17;;;21.80;97.40;;;;;;5013653;28;20037;-79
2022/08/01 01:18:04;;;;;;;4.70;1.80;;;21.80;97.60;;;;;;5017989;28;20025;-80
2022/08/01 01:21:05;;;;;;;6.47;2.33;;;21.80;98.00;;;;;;4996323;28;20376;-84
2022/08/01 01:24:02;;;;;;;3.75;1.85;;;21.80;98.10;;;;;;4972375;28;20065;-81
2022/08/01 01:26:39;;;;;;;2.70;1.90;;;21.80;98.20;;;;;;4995395;28;20056;-83
2022/08/01 01:29:05;;;;;;;4.88;2.60;;;;;;;;;;4998257;28;20385;-80
2022/08/01 01:31:36;;;;;;;4.57;2.15;;;21.80;98.30;;;;;;5010283;28;20037;-81
2022/08/01 01:34:04;;;;;;;3.58;2.13;;;21.90;98.40;;;;;;4990582;28;20041;-81
2022/08/01 01:36:32;;;;;;;4.07;2.00;;;21.80;98.50;;;;;;4994584;28;20034;-80
2022/08/01 01:39:00;;;;;;;3.63;2.13;;;21.80;98.70;;;;;;4995030;28;20124;-85
2022/08/01 01:41:27;;;;;;;3.38;1.83;;;23.30;99.20;;;;;;5012134;28;20097;-87
2022/08/01 01:43:54;;;;;;;3.78;2.00;;;21.70;99.00;;;;;;5027186;28;20022;-88
2022/08/01 01:46:24;;;;;;;3.50;1.75;;;21.70;99.00;;;;;;5010635;28;20026;-87
2022/08/01 01:48:51;;;;;;;3.30;2.20;;;21.70;99.30;;;;;;5015143;28;20042;-85
2022/08/01 01:51:20;;;;;;;5.57;2.17;;;21.70;99.30;;;;;;5016156;28;20038;-86
2022/08/01 01:53:49;;;;;;;5.77;2.33;;;21.60;99.50;;;;;;5030470;28;20010;-86
2022/08/01 01:56:17;;;;;;;3.80;2.15;;;21.60;99.60;;;;;;5010826;28;20090;-87
2022/08/01 01:58:44;;;;;;;3.00;2.10;;;21.60;99.80;;;;;;5016372;28;20034;-86
2022/08/01 02:01:11;;;;;;;2.95;2.08;;;21.60;99.90;;;;;;5016305;28;20018;-86
2022/08/01 02:03:38;;;;;;;4.18;2.00;;;21.50;99.90;;;;;;5032372;28;20041;-85
2022/08/01 02:06:04;;;;;;;3.03;1.92;;;21.50;99.90;;;;;;5009618;28;20014;-85
2022/08/01 02:08:32;;;;;;;7.25;3.97;;;21.50;99.90;;;;;;5024480;28;20046;-84
2022/08/01 02:14:02;;;;;;;3.08;2.03;;;21.50;99.90;;;;;;4984471;28;20094;-81
2022/08/01 02:16:41;;;;;;;3.63;1.95;;;21.40;99.90;;;;;;5018715;28;20030;-81
2022/08/01 02:19:07;;;;;;;2.30;1.73;;;21.50;99.90;;;;;;4999943;28;20041;-85
2022/08/01 02:21:41;;;;;;;2.80;1.80;;;21.30;99.90;;;;;;4998196;28;20022;-81
2022/08/01 02:24:27;;;;;;;4.00;2.10;;;21.20;99.90;;;;;;4991884;28;20053;-81
2022/08/01 02:26:56;;;;;;;3.40;1.85;;;21.20;99.90;;;;;;4992558;28;20056;-83
2022/08/01 02:29:27;;;;;;;4.78;2.22;;;21.20;99.90;;;;;;4996290;28;20048;-84
2022/08/01 02:31:54;;;;;;;4.40;2.08;;;21.10;99.90;;;;;;4998249;28;20068;-82
2022/08/01 02:34:22;;;;;;;4.22;1.92;;;21.10;99.90;;;;;;5015413;28;20025;-83
2022/08/01 02:36:49;;;;;;;3.95;2.00;;;21.10;99.90;;;;;;5014461;28;20030;-82
2022/08/01 02:39:18;;;;;;;4.30;2.10;;;21.10;99.90;;;;;;5018964;28;20026;-84
2022/08/01 02:41:48;;;;;;;3.75;2.40;;;21.00;99.90;;;;;;5012849;28;20030;-80
2022/08/01 02:44:27;;;;;;;3.72;1.95;;;21.00;99.90;;;;;;4989248;28;20105;-82
2022/08/01 02:47:04;;;;;;;3.22;2.03;;;21.00;99.90;;;;;;5015608;28;20029;-80
2022/08/01 02:49:35;;;;;;;3.17;1.98;;;20.90;99.90;;;;;;4998744;28;20644;-81
2022/08/01 02:52:06;;;;;;;2.80;1.92;;;20.90;99.90;;;;;;5011186;28;20080;-83
2022/08/01 02:54:33;;;;;;;3.80;1.95;;;20.90;99.90;;;;;;4999028;28;20049;-81
2022/08/01 02:57:02;;;;;;;4.90;1.95;;;20.90;99.90;;;;;;4998298;28;20042;-83
2022/08/01 02:59:30;;;;;;;3.22;2.15;;;20.90;99.90;;;;;;5016524;28;20033;-80
2022/08/01 03:01:57;;;;;;;3.42;1.98;;;20.90;99.90;;;;;;5016578;28;20020;-85
2022/08/01 03:04:24;;;;;;;2.75;1.85;;;;;;;;;;5017936;28;20026;-83
2022/08/01 03:06:52;;;;;;;3.00;1.90;;;20.90;99.90;;;;;;5016644;28;20041;-84
2022/08/01 03:09:19;;;;;;;2.83;1.85;;;20.80;99.90;;;;;;5002465;28;20040;-85
2022/08/01 03:11:47;;;;;;;3.13;1.90;;;20.80;99.90;;;;;;5002338;28;20033;-82
2022/08/01 03:14:15;;;;;;;4.25;2.17;;;20.70;99.90;;;;;;4999759;28;20026;-81
2022/08/01 03:16:43;;;;;;;3.33;2.00;;;20.70;99.90;;;;;;4982053;28;20073;-83
2022/08/01 03:19:11;;;;;;;4.68;1.98;;;20.70;99.90;;;;;;4995930;28;20131;-82
2022/08/01 03:21:39;;;;;;;3.20;2.10;;;20.60;99.90;;;;;;4997576;28;20623;-80
2022/08/01 03:24:06;;;;;;;3.22;1.90;;;20.60;99.90;;;;;;5019843;28;20037;-79
2022/08/01 03:26:34;;;;;;;5.38;2.20;;;;;;;;;;4995464;28;20026;-83
2022/08/01 03:29:07;;;;;;;3.00;1.90;;;20.70;99.90;;;;;;5003368;28;20053;-82
2022/08/01 03:31:37;;;;;;;4.35;2.38;;;20.70;99.90;;;;;;5014677;28;20036;-79
2022/08/01 03:34:05;;;;;;;4.25;2.22;;;20.70;99.90;;;;;;5001759;28;20040;-84
2022/08/01 03:36:33;;;;;;;3.33;2.05;;;20.70;99.90;;;;;;4987758;28;20044;-82
2022/08/01 03:39:03;;;;;;;3.50;2.00;;;20.70;99.90;;;;;;5017464;28;20025;-80
2022/08/01 03:41:35;;;;;;;5.15;2.55;;;20.60;99.90;;;;;;4998532;28;20022;-80
2022/08/01 03:44:05;;;;;;;4.68;2.40;;;20.60;99.90;;;;;;5003317;28;20038;-82
2022/08/01 03:46:47;;;;;;;6.95;2.38;;;20.60;99.90;;;;;;5008925;28;20029;-86
2022/08/01 03:49:19;;;;;;;3.80;2.22;;;20.60;99.90;;;;;;5000294;28;20030;-80
2022/08/01 03:51:49;;;;;;;7.53;2.30;;;20.60;99.90;;;;;;5001634;28;20543;-83
2022/08/01 03:54:17;;;;;;;4.88;2.28;;;20.60;99.90;;;;;;4997893;28;20026;-82
2022/08/01 03:56:45;;;;;;;5.50;2.22;;;20.60;99.90;;;;;;5016721;28;20030;-82
2022/08/01 03:59:12;;;;;;;3.85;2.30;;;;;;;;;;5000922;28;20090;-84
2022/08/01 04:01:39;;;;;;;4.28;1.80;;;;;;;;;;5018846;28;20027;-85
2022/08/01 04:04:05;;;;;;;5.45;2.33;;;;;;;;;;5015659;28;20122;-84
2022/08/01 04:06:31;;;;;;;5.97;2.50;;;;;;;;;;5024247;28;20030;-84
2022/08/01 04:08:57;;;;;;;3.97;1.92;;;;;;;;;;5020503;28;20026;-88
2022/08/01 04:11:25;;;;;;;4.75;2.40;;;20.40;99.90;;;;;;5021381;28;20026;-83
2022/08/01 04:13:52;;;;;;;4.18;2.47;;;20.30;99.90;;;;;;5019152;28;20034;-85
2022/08/01 04:16:19;;;;;;;5.40;2.67;;;20.30;99.90;;;;;;5013796;28;20025;-84
2022/08/01 04:18:45;;;;;;;6.07;2.60;;;;;;;;;;5001430;28;20026;-85
2022/08/01 04:21:11;;;;;;;9.02;3.45;;;20.20;99.90;;;;;;5019175;28;20392;-85
2022/08/01 04:23:40;;;;;;;6.60;2.97;;;20.20;99.90;;;;;;5018215;28;20040;-88
2022/08/01 04:26:08;;;;;;;5.32;2.97;;;20.20;99.90;;;;;;4999138;28;20029;-85
2022/08/01 04:28:36;;;;;;;7.28;2.90;;;20.20;99.90;;;;;;4987810;28;20056;-86
2022/08/01 04:31:04;;;;;;;7.75;2.80;;;20.10;99.90;;;;;;4996702;28;20022;-84
2022/08/01 04:33:32;;;;;;;7.85;2.55;;;20.10;99.90;;;;;;5014744;28;20038;-84
2022/08/01 04:36:01;;;;;;;6.68;3.10;;;20.10;99.90;;;;;;5001330;28;20018;-86
2022/08/01 04:38:28;;;;;;;5.78;2.90;;;20.10;99.90;;;;;;5005233;28;20022;-83
2022/08/01 04:40:56;;;;;;;4.95;2.92;;;20.20;99.90;;;;;;5002473;28;20022;-84
2022/08/01 04:43:22;;;;;;;6.97;3.05;;;19.50;99.90;;;;;;5007821;28;20029;-85
2022/08/01 04:45:50;;;;;;;9.75;3.17;;;20.10;99.90;;;;;;5005671;28;20036;-86
2022/08/01 04:48:19;;;;;;;5.18;3.08;;;20.20;99.90;;;;;;5015553;28;20046;-85
2022/08/01 04:50:45;;;;;;;6.20;3.13;;;;;;;;;;5010911;28;20125;-83
2022/08/01 04:53:18;;;;;;;8.10;2.90;;;20.20;99.90;;;;;;5000309;28;20030;-83
2022/08/01 04:55:45;;;;;;;4.93;2.50;;;20.20;99.90;;;;;;5003829;28;20452;-84
2022/08/01 04:58:12;;;;;;;6.13;3.15;;;;;;;;;;5013573;28;20030;-86
2022/08/01 05:00:38;;;;;;;6.38;3.10;;;;;;;;;;5013489;28;20093;-86
2022/08/01 05:03:04;;;;;;;8.07;3.30;;;;;;;;;;5014075;28;20038;-85
2022/08/01 05:05:33;;;;;;;5.40;3.03;;;20.20;99.90;;;;;;4998395;28;20037;-84
2022/08/01 05:07:59;;;;;;;5.45;3.05;;;20.30;99.90;;;;;;4999377;28;20407;-83
2022/08/01 05:10:25;;;;;;;9.13;4.00;;;;;;;;;;4999651;28;20022;-86
2022/08/01 05:12:51;;;;;;;8.00;3.45;;;;;;;;;;4995524;28;20041;-84
2022/08/01 05:15:17;;;;;;;6.55;3.17;;;;;;;;;;4998382;28;20072;-84
2022/08/01 05:17:43;;;;;;;5.88;2.95;;;20.40;99.90;;;;;;5013081;28;20133;-86
2022/08/01 05:20:10;;;;;;;5.65;2.78;;;18.90;99.90;;;;;;4994871;28;20061;-83
2022/08/01 05:22:35;;;;;;;6.75;3.00;;;20.50;99.90;;;;;;4995711;28;20030;-82
2022/08/01 05:25:01;;;;;;;7.80;3.55;;;20.60;99.90;;;;;;5011835;28;20049;-85
2022/08/01 05:27:26;;;;;;;5.47;2.83;;;20.70;99.90;;;;;;5000358;28;20128;-85
2022/08/01 05:29:52;;;;;;;12.15;3.00;;;20.70;99.90;;;;;;4994266;28;20093;-83
2022/08/01 05:32:18;;;;;;;6.03;3.30;;;;;;;;;;4995431;28;20049;-84
2022/08/01 05:34:44;;;;;;;4.95;2.78;;;;;;;;;;5006802;28;20026;-84
2022/08/01 05:37:11;;;;;;;6.47;3.17;;;;;;;;;;5020363;28;20037;-82
2022/08/01 05:39:36;;;;;;;4.05;2.33;;;21.40;99.90;;;;;;5004984;28;20041;-86
2022/08/01 05:42:02;;;;;;;7.32;2.92;;;21.40;99.90;;;;;;5023674;28;20370;-81
2022/08/01 05:44:28;;;;;;;6.22;2.40;;;;;;;;;;5010188;28;20037;-87
2022/08/01 05:46:54;;;;;;;5.65;2.30;;;;;;;;;;4994252;28;20057;-79
2022/08/01 05:49:20;;;;;;;8.05;2.65;;;;;;;;;;5014963;28;20037;-77
2022/08/01 05:51:46;;;;;;;6.70;2.22;;;;;;;;;;4997921;28;20095;-82
2022/08/01 05:54:12;;;;;;;4.80;2.65;;;;;;;;;;5014692;28;20069;-85
2022/08/01 05:56:38;;;;;;;6.95;2.50;;;;;;;;;;5014525;28;20026;-79
2022/08/01 05:59:04;;;;;;;5.93;2.88;;;;;;;;;;4993336;28;20052;-84
2022/08/01 06:01:30;;;;;;;5.47;2.78;;;;;;;;;;5007920;28;20515;-83
2022/08/01 06:03:56;;;;;;;6.25;3.08;;;;;;;;;;4991918;28;20041;-83
2022/08/01 06:06:22;;;;;;;5.35;2.78;;;;;;;;;;5008462;28;20409;-87
2022/08/01 06:08:48;;;;;;;4.20;1.98;;;21.60;99.90;;;;;;5016036;28;20037;-83
2022/08/01 06:11:14;;;;;;;6.20;1.77;;;21.50;99.90;;;;;;5026315;28;20056;-81
2022/08/01 06:13:39;;;;;;;6.53;1.83;;;21.70;99.90;;;;;;5023221;28;20021;-85
2022/08/01 06:16:05;;;;;;;3.60;1.55;;;21.80;99.90;;;;;;5016206;28;20048;-85
2022/08/01 06:18:31;;;;;;;2.30;1.27;;;21.80;99.90;;;;;;5030508;28;20030;-79
2022/08/01 06:20:57;;;;;;;2.83;1.25;;;21.80;99.90;;;;;;5013554;28;20097;-82
2022/08/01 06:23:23;;;;;;;3.63;1.75;;;;;;;;;;5021938;28;20044;-78
2022/08/01 06:25:53;;;;;;;3.63;1.83;;;21.80;99.90;;;;;;5014591;28;20069;-83
2022/08/01 06:28:19;;;;;;;5.00;1.70;;;22.00;99.90;;;;;;5015923;28;20037;-82
2022/08/01 06:30:44;;;;;;;3.45;2.00;;;22.00;99.90;;;;;;5014067;28;20030;-80
2022/08/01 06:33:10;;;;;;;6.88;2.90;;;22.00;99.90;;;;;;4994899;28;20499;-81
2022/08/01 06:35:36;;;;;;;7.47;2.25;;;;;;;;;;5013464;28;20082;-80
2022/08/01 06:38:03;;;;;;;5.57;2.30;;;22.30;99.90;;;;;;5001243;28;20030;-81
2022/08/01 06:40:28;;;;;;;7.60;2.17;;;22.30;99.90;;;;;;4998564;28;20033;-81
2022/08/01 06:42:54;;;;;;;6.15;2.45;;;;;;;;;;5000668;28;20396;-83
2022/08/01 06:45:25;;;;;;;7.30;2.10;;;;;;;;;;5018237;28;20034;-81
2022/08/01 06:47:51;;;;;;;6.68;2.10;;;;;;;;;;4998276;28;20041;-81
2022/08/01 06:50:18;;;;;;;6.57;2.20;;;;;;;;;;5021193;28;20050;-81
2022/08/01 06:52:43;;;;;;;6.75;1.90;;;22.70;99.90;;;;;;5011243;28;20065;-81
2022/08/01 06:55:09;;;;;;;7.95;1.80;;;22.80;99.90;;;;;;5024366;28;20030;-84
2022/08/01 06:57:35;;;;;;;5.25;1.80;;;22.80;99.90;;;;;;5006126;28;20057;-79
2022/08/01 07:00:08;;;;;;;4.57;1.50;;;22.80;99.80;;;;;;5010496;28;20025;-86
2022/08/01 07:02:36;;;;;;;5.93;1.58;;;;;;;;;;5032578;28;20077;-84
2022/08/01 07:05:03;;;;;;;5.13;1.67;;;;;;;;;;5034513;28;20021;-84
2022/08/01 07:07:29;;;;;;;5.50;1.50;;;;;;;;;;5034943;28;20064;-84
2022/08/01 07:09:55;;;;;;;3.50;1.90;;;;;;;;;;5019422;28;20006;-86
2022/08/01 07:12:21;;;;;;;4.32;1.75;;;22.90;99.50;;;;;;5017761;28;20022;-83
2022/08/01 07:14:50;;;;;;;5.57;1.92;;;23.20;99.40;;;;;;5016351;28;20037;-86
2022/08/01 07:17:16;;;;;;;3.80;1.60;;;;;;;;;;5029536;28;20042;-88
2022/08/01 07:19:42;;;;;;;5.18;1.70;;;23.10;99.30;;;;;;5033806;28;20048;-89
2022/08/01 07:22:08;;;;;;;6.00;1.80;;;;;;;;;;5033881;28;20017;-89
2022/08/01 07:24:34;;;;;;;5.80;1.73;;;;;;;;;;5030826;28;20030;-88
2022/08/01 07:27:00;;;;;;;5.65;1.50;;;;;;;;;;5035104;28;20037;-88
2022/08/01 07:29:26;;;;;;;5.05;1.50;;;;;;;;;;5012321;28;20026;-88
2022/08/01 07:31:54;;;;;;;3.45;1.23;;;23.70;97.30;;;;;;5029607;28;20038;-89
2022/08/01 07:34:21;;;;;;;3.05;1.38;;;;;;;;;;5011793;28;20033;-79
2022/08/01 07:36:47;;;;;;;4.53;1.30;;;;;;;;;;4995733;28;20018;-83
2022/08/01 07:39:13;;;;;;;4.97;2.17;;;;;;;;;;5011145;28;20029;-81
2022/08/01 07:41:39;;;;;;;3.28;1.60;;;;;;;;;;4998209;28;20117;-80
2022/08/01 07:44:05;;;;;;;2.90;1.10;;;;;;;;;;4999592;28;20039;-82
2022/08/01 07:46:31;;;;;;;3.40;1.17;;;24.20;95.60;;;;;;4995699;28;20046;-82
2022/08/01 07:48:57;;;;;;;3.67;1.30;;;24.20;96.50;;;;;;4998706;28;20080;-83
2022/08/01 07:51:23;;;;;;;4.75;1.10;;;;;;;;;;4999395;28;20030;-79
2022/08/01 07:53:49;;;;;;;1.77;1.10;;;;;;;;;;4990871;28;22059;-82
2022/08/01 07:56:15;;;;;;;5.82;1.30;;;;;;;;;;4993820;28;20089;-84
2022/08/01 07:58:41;;;;;;;3.33;1.40;;;;;;;;;;4997490;28;20030;-81
2022/08/01 08:01:07;;;;;;;2.78;1.27;;;;;;;;;;5003419;28;20092;-82
2022/08/01 08:03:33;;;;;;;3.30;1.00;;;24.50;94.80;;;;;;4998650;28;20028;-81
2022/08/01 08:05:59;;;;;;;2.78;1.15;;;;;;;;;;5013260;28;20018;-81
2022/08/01 08:08:24;;;;;;;3.30;1.10;;;24.50;94.80;;;;;;4996989;28;20029;-83
2022/08/01 08:10:51;;;;;;;1.55;1.17;;;;;;;;;;5016370;28;20040;-81
2022/08/01 08:13:17;;;;;;;2.42;1.10;;;;;;;;;;5012232;28;20022;-81
2022/08/01 08:15:43;;;;;;;6.10;1.27;;;;;;;;;;4997248;28;20026;-82
2022/08/01 08:18:09;;;;;;;4.95;1.45;;;;;;;;;;5020735;28;20029;-82
2022/08/01 08:20:35;;;;;;;11.73;8.05;;;;;;;;;;5014473;28;20033;-82
2022/08/01 08:23:01;;;;;;;6.93;4.22;;;;;;;;;;5017259;28;20046;-84
2022/08/01 08:25:28;;;;;;;4.60;1.88;;;24.40;94.60;;;;;;5010867;28;20113;-84
2022/08/01 08:27:54;;;;;;;5.00;2.00;;;;;;;;;;5007919;28;20104;-83
2022/08/01 08:30:20;;;;;;;3.17;1.60;;;;;;;;;;4999360;28;20654;-81
2022/08/01 08:32:46;;;;;;;3.45;1.50;;;24.10;95.20;;;;;;4998175;28;20026;-79
2022/08/01 08:35:12;;;;;;;3.20;1.23;;;;;;;;;;4995688;28;20030;-86
2022/08/01 08:37:39;;;;;;;3.22;1.30;;;;;;;;;;5017579;28;20171;-82
2022/08/01 08:40:06;;;;;;;3.70;1.65;;;24.10;95.00;;;;;;4996488;28;20018;-82
2022/08/01 08:42:32;;;;;;;2.20;1.45;;;;;;;;;;4991855;28;20050;-83
2022/08/01 08:44:58;;;;;;;2.08;1.10;;;24.20;94.90;;;;;;4992394;28;20129;-81
2022/08/01 08:47:25;;;;;;;4.07;1.52;;;24.20;95.00;;;;;;5000134;28;20089;-82
2022/08/01 08:49:53;;;;;;;3.83;1.50;;;24.10;94.90;;;;;;4997820;28;20033;-81
2022/08/01 08:52:20;;;;;;;1.75;0.90;;;24.20;95.00;;;;;;5010387;28;20018;-84
2022/08/01 08:54:48;;;;;;;4.88;1.58;;;24.30;94.80;;;;;;4995259;28;20032;-81
2022/08/01 08:57:15;;;;;;;3.85;1.20;;;24.30;94.70;;;;;;5008306;28;20041;-83
2022/08/01 08:59:44;;;;;;;4.55;1.15;;;24.40;94.50;;;;;;4981120;28;20400;-85
2022/08/01 09:02:10;;;;;;;3.63;1.10;;;24.30;94.50;;;;;;4997827;28;20049;-80
2022/08/01 09:04:38;;;;;;;4.10;1.25;;;24.30;94.70;;;;;;4998173;28;20292;-82
2022/08/01 09:07:05;;;;;;;2.60;1.30;;;24.40;94.60;;;;;;5015112;28;20029;-83
2022/08/01 09:09:31;;;;;;;2.30;1.30;;;24.40;94.50;;;;;;5010555;28;20025;-80
2022/08/01 09:11:56;;;;;;;4.47;1.10;;;24.40;94.30;;;;;;4994997;28;20369;-80
2022/08/01 09:14:23;;;;;;;5.00;1.48;;;;;;;;;;4998355;28;20025;-83
2022/08/01 09:17:07;;;;;;;3.45;1.48;;;24.50;94.30;;;;;;5001397;28;20022;-82
2022/08/01 09:19:38;;;;;;;2.28;1.20;;;24.40;94.50;;;;;;4994041;28;20097;-80
2022/08/01 09:22:09;;;;;;;2.10;1.02;;;24.50;94.60;;;;;;5012719;28;20379;-81
2022/08/01 09:24:35;;;;;;;5.13;1.27;;;24.60;94.40;;;;;;4994880;28;20038;-84
2022/08/01 09:27:18;;;;;;;3.45;1.42;;;24.80;94.10;;;;;;4988044;28;20029;-83
2022/08/01 09:29:44;;;;;;;4.88;1.70;;;24.90;93.80;;;;;;4991629;28;20049;-80
2022/08/01 09:32:10;;;;;;;3.50;1.20;;;;;;;;;;4993025;28;20083;-81
2022/08/01 09:34:36;;;;;;;4.53;1.27;;;;;;;;;;4996288;28;20038;-83
2022/08/01 09:37:03;;;;;;;3.17;1.92;;;25.30;92.70;;;;;;4997393;28;20096;-82
2022/08/01 09:39:32;;;;;;;5.18;1.95;;;25.30;92.70;;;;;;4998916;28;20342;-83
2022/08/01 09:42:01;;;;;;;3.25;1.48;;;25.30;92.50;;;;;;4993677;28;20041;-81
2022/08/01 09:44:44;;;;;;;5.85;1.60;;;25.30;93.00;;;;;;5019590;28;20026;-85
2022/08/01 09:47:10;;;;;;;2.20;1.30;;;25.30;92.80;;;;;;5001822;28;20068;-81
2022/08/01 09:49:38;;;;;;;5.53;1.83;;;25.30;92.70;;;;;;5003732;28;20041;-84
2022/08/01 09:52:16;;;;;;;3.45;1.58;;;25.20;92.90;;;;;;5003180;28;20056;-81
2022/08/01 09:54:44;;;;;;;5.50;2.08;;;25.10;92.90;;;;;;5016367;28;20109;-80
2022/08/01 09:57:18;;;;;;;5.97;2.58;;;25.30;92.80;;;;;;5014730;28;20212;-83
2022/08/01 09:59:49;;;;;;;2.45;1.45;;;25.50;92.50;;;;;;5000107;28;20045;-84
2022/08/01 10:02:26;;;;;;;4.90;1.80;;;25.70;92.00;;;;;;4998404;28;20026;-80
2022/08/01 10:04:52;;;;;;;2.88;1.70;;;26.10;91.70;;;;;;5015824;28;20350;-81
2022/08/01 10:07:18;;;;;;;8.45;3.47;;;26.50;91.00;;;;;;5003320;28;20036;-82
2022/08/01 10:09:45;;;;;;;3.97;1.17;;;26.60;90.90;;;;;;5000340;28;20025;-83
2022/08/01 10:12:14;;;;;;;4.53;1.90;;;26.60;90.30;;;;;;4998927;28;20022;-80
2022/08/01 10:14:41;;;;;;;2.22;1.30;;;26.30;90.60;;;;;;5021893;28;20033;-85
2022/08/01 10:17:09;;;;;;;2.38;1.13;;;26.10;90.70;;;;;;4999941;28;20034;-81
2022/08/01 10:19:37;;;;;;;4.30;1.40;;;26.10;90.80;;;;;;4996564;28;20388;-84
2022/08/01 10:22:07;;;;;;;3.28;1.08;;;26.40;90.20;;;;;;5021745;28;20030;-79
2022/08/01 10:24:39;;;;;;;2.58;1.38;;;26.40;90.50;;;;;;5000676;28;20028;-81
2022/08/01 10:27:09;;;;;;;2.88;0.98;;;26.90;90.10;;;;;;4984094;28;20163;-84
2022/08/01 10:30:03;;;;;;;4.53;1.00;;;27.10;88.60;;;;;;5006352;28;20086;-80
2022/08/01 10:32:30;;;;;;;2.92;1.30;;;27.00;88.00;;;;;;5022093;28;20085;-82
2022/08/01 10:34:56;;;;;;;3.80;1.10;;;26.60;89.00;;;;;;4999717;28;20287;-81
2022/08/01 10:37:23;;;;;;;3.40;0.90;;;;;;;;;;5000545;28;20037;-83
2022/08/01 10:39:50;;;;;;;1.30;0.80;;;26.90;88.10;;;;;;5019682;28;21351;-83
2022/08/01 10:42:18;;;;;;;0.98;0.75;;;26.90;87.40;;;;;;5018068;28;20057;-83
2022/08/01 10:44:47;;;;;;;2.95;1.00;;;26.90;87.90;;;;;;5001091;28;20057;-83
2022/08/01 10:47:15;;;;;;;1.92;0.95;;;26.80;87.60;;;;;;4999676;28;20026;-83
2022/08/01 10:49:56;;;;;;;1.38;0.88;;;26.70;87.50;;;;;;5011212;28;20168;-82
2022/08/01 10:52:22;;;;;;;1.98;0.80;;;;;;;;;;5012616;28;20022;-82
2022/08/01 10:54:48;;;;;;;2.28;0.90;;;;;;;;;;5015284;28;20040;-85
2022/08/01 10:57:14;;;;;;;3.20;1.17;;;;;;;;;;5019867;28;20097;-79
2022/08/01 10:59:51;;;;;;;1.45;0.90;;;26.50;88.20;;;;;;4996466;28;20058;-80
2022/08/01 11:02:31;;;;;;;3.35;0.82;;;26.40;87.80;;;;;;4990071;28;20400;-82
2022/08/01 11:05:19;;;;;;;3.20;1.13;;;26.20;88.50;;;;;;4996947;28;20823;-82
2022/08/01 11:07:52;;;;;;;2.85;1.10;;;26.10;88.90;;;;;;5017022;28;20021;-83
2022/08/01 11:10:38;;;;;;;2.85;1.10;;;26.00;89.40;;;;;;4997841;28;20026;-82
2022/08/01 11:13:07;;;;;;;1.40;1.00;;;;;;;;;;5013124;28;20531;-81
2022/08/01 11:15:33;;;;;;;3.27;0.97;;;;;;;;;;5017026;28;20106;-81
2022/08/01 11:18:03;;;;;;;1.95;1.13;;;26.30;88.20;;;;;;5015630;28;20057;-83
2022/08/01 11:20:36;;;;;;;2.28;0.93;;;26.10;88.80;;;;;;5014808;28;20050;-80
2022/08/01 11:23:05;;;;;;;2.70;0.95;;;;;;;;;;5012748;28;20026;-83
2022/08/01 11:25:36;;;;;;;1.90;0.80;;;26.10;88.10;;;;;;4992767;28;20025;-80
2022/08/01 11:28:23;;;;;;;4.40;1.30;;;25.90;89.20;;;;;;5000339;28;20026;-81
2022/08/01 11:30:50;;;;;;;3.22;1.00;;;26.00;88.90;;;;;;5013683;28;20120;-80
2022/08/01 11:33:19;;;;;;;4.57;1.27;;;26.20;88.00;;;;;;4999232;28;20030;-86
2022/08/01 11:36:09;;;;;;;3.58;1.10;;;26.20;88.50;;;;;;5008140;28;20029;-82
2022/08/01 11:38:37;;;;;;;3.25;1.10;;;26.60;87.10;;;;;;4996538;28;20021;-83
2022/08/01 11:41:21;;;;;;;2.80;1.05;;;26.70;87.70;;;;;;5020160;28;20049;-84
2022/08/01 11:46:16;;;;;;;3.45;1.10;;;26.70;87.10;;;;;;4982757;28;20055;-80
2022/08/01 11:48:42;;;;;;;3.97;1.30;;;26.60;86.60;;;;;;4995482;28;20058;-80
2022/08/01 11:51:15;;;;;;;2.83;1.65;;;26.50;86.90;;;;;;4979259;28;20085;-80
2022/08/01 11:53:49;;;;;;;4.45;1.52;;;26.40;86.20;;;;;;4988673;28;20034;-80
2022/08/01 11:56:16;;;;;;;5.32;2.88;;;26.40;86.70;;;;;;4999982;28;20033;-80
2022/08/01 11:58:42;;;;;;;4.05;1.10;;;26.30;87.10;;;;;;4986705;28;20065;-79
2022/08/01 12:01:12;;;;;;;3.40;1.58;;;26.40;87.00;;;;;;4981256;28;20094;-81
2022/08/01 12:03:38;;;;;;;3.72;1.17;;;26.30;87.40;;;;;;4987119;28;20040;-81
2022/08/01 12:06:04;;;;;;;3.70;0.80;;;26.30;87.50;;;;;;4979962;28;20491;-81
2022/08/01 12:08:34;;;;;;;2.45;1.00;;;26.40;87.80;;;;;;4981366;28;20058;-82
2022/08/01 12:11:01;;;;;;;2.13;1.15;;;26.50;87.90;;;;;;4976960;28;20033;-79
2022/08/01 12:13:38;;;;;;;2.33;1.30;;;26.60;87.70;;;;;;4987048;28;20104;-80
2022/08/01 12:16:08;;;;;;;2.22;1.08;;;26.70;87.00;;;;;;4980437;28;20026;-78
2022/08/01 12:18:43;;;;;;;3.10;1.00;;;26.80;86.50;;;;;;4993567;28;20150;-80
2022/08/01 12:21:09;;;;;;;5.10;0.82;;;27.10;85.60;;;;;;4990369;28;20045;-80
2022/08/01 12:23:35;;;;;;;8.52;1.42;;;27.50;84.30;;;;;;4982270;28;20043;-81
2022/08/01 12:26:01;;;;;;;4.93;1.42;;;27.70;83.30;;;;;;4985627;28;20475;-79
2022/08/01 12:28:27;;;;;;;1.98;0.93;;;27.80;83.00;;;;;;4984689;28;20038;-83
2022/08/01 12:30:53;;;;;;;2.40;0.82;;;27.80;82.80;;;;;;5001900;28;20034;-82
2022/08/01 12:33:20;;;;;;;1.83;0.85;;;27.80;82.80;;;;;;4993062;28;20030;-80
2022/08/01 12:35:47;;;;;;;2.72;0.90;;;27.80;82.30;;;;;;4979760;28;20037;-80
2022/08/01 12:38:24;;;;;;;2.08;0.98;;;27.80;82.20;;;;;;4974380;28;20061;-80
2022/08/01 12:40:50;;;;;;;1.80;1.00;;;27.80;82.00;;;;;;4991040;28;20084;-80
2022/08/01 12:43:22;;;;;;;2.35;1.00;;;27.80;81.80;;;;;;4974729;28;20403;-80
2022/08/01 12:45:49;;;;;;;4.25;1.20;;;27.70;82.50;;;;;;4985019;28;20060;-81
2022/08/01 12:48:17;;;;;;;1.95;0.80;;;27.60;82.10;;;;;;4994834;28;20037;-81
2022/08/01 12:50:48;;;;;;;2.55;0.70;;;27.50;82.30;;;;;;4990472;28;20502;-82
2022/08/01 12:53:15;;;;;;;1.45;0.68;;;27.30;82.00;;;;;;4996170;28;20034;-82
2022/08/01 12:55:49;;;;;;;7.55;1.70;;;27.20;82.40;;;;;;4995136;28;20022;-82
2022/08/01 12:58:19;;;;;;;4.82;2.10;;;27.20;82.90;;;;;;4983267;28;20034;-82
2022/08/01 13:00:46;;;;;;;1.35;0.90;;;27.30;83.20;;;;;;4983942;28;20028;-81
2022/08/01 13:03:20;;;;;;;1.15;0.60;;;27.40;83.00;;;;;;4994948;28;20030;-81
2022/08/01 13:05:48;;;;;;;3.40;1.00;;;27.30;82.10;;;;;;4978618;28;20085;-80
2022/08/01 13:08:34;;;;;;;1.45;0.70;;;27.30;81.80;;;;;;4987998;28;20035;-80
2022/08/01 13:11:09;;;;;;;1.33;0.75;;;27.20;81.90;;;;;;4968331;28;20555;-82
2022/08/01 13:13:39;;;;;;;2.00;0.70;;;27.10;82.30;;;;;;4975519;28;20030;-79
2022/08/01 13:16:07;;;;;;;1.83;0.80;;;27.10;82.40;;;;;;4971848;28;20041;-81
2022/08/01 13:18:34;;;;;;;2.95;0.60;;;27.20;82.30;;;;;;4994448;28;20049;-83
2022/08/01 13:21:15;;;;;;;3.53;0.93;;;27.10;82.40;;;;;;4990489;28;20044;-82
2022/08/01 13:24:02;;;;;;;2.92;0.80;;;27.20;81.90;;;;;;4997194;28;20031;-83
2022/08/01 13:26:37;;;;;;;1.70;0.60;;;27.20;82.30;;;;;;4976834;28;20106;-84
2022/08/01 13:29:08;;;;;;;0.88;0.70;;;27.50;81.50;;;;;;4996170;28;20030;-82